46D

Carrington Municipal Airport

Carrington, North Dakota, USA
METAR K46D 172335Z AUTO 25014G19KT 10SM OVC020 M10/M13 A3036 RMK AO2
Observed Flight Rules
Nov-17 @ 23:35 UTC (12 minutes ago) Marginal Visual Flight Rules
Wind Visibility Clouds
250° at 14 knots
 Gusting to 19 knots
10 miles
  • Overcast at 2,000' AGL
Temperatures Readings
Current -10°C / 14°F
Dewpoint -13°C / 9°F
Humidity 79%
Altimeter 30.36" Hg
Pressure 1028 hPa
Elevation 490
METAR K46D 172335Z AUTO 25014G19KT 10SM OVC020 M10/M13 A3036 RMK AO2
Observed Flight Rules
Nov-17 @ 23:35 UTC
(12 minutes ago)
MVFR
Wind Visibility
250° at 14 knots
 Gusting to 19 knots
10 miles
Clouds
  • Overcast at 2,000' AGL
Temperature Dewpoint
-10°C / 14°F -13°C / 9°F
Humidity Altimeter Pressure
79% 30.36" Hg 1028 hPa